createdAt,value
2019-03-21T00:01:02.262Z,100044.41
2019-03-21T00:03:33.092Z,100044.59
2019-03-21T00:06:04.960Z,100051.70
2019-03-21T00:08:35.897Z,100046.38
2019-03-21T00:11:48.740Z,100049.28
2019-03-21T00:14:49.089Z,100047.75
2019-03-21T00:17:22.266Z,100036.17
2019-03-21T00:19:53.403Z,100041.09
2019-03-21T00:22:25.244Z,100039.58
2019-03-21T00:24:56.207Z,100042.02
2019-03-21T00:27:27.020Z,100040.02
2019-03-21T00:29:57.882Z,100036.24
2019-03-21T00:32:28.594Z,100037.26
2019-03-21T00:34:59.447Z,100031.62
2019-03-21T00:37:30.254Z,100033.09
2019-03-21T00:40:01.671Z,100031.77
2019-03-21T00:42:32.832Z,100031.77
2019-03-21T00:45:03.782Z,100032.02
2019-03-21T00:47:35.747Z,100029.55
2019-03-21T00:50:09.062Z,100025.30
2019-03-21T00:52:39.765Z,100024.61
2019-03-21T00:55:12.758Z,100027.35
2019-03-21T00:57:43.497Z,100026.11
2019-03-21T01:00:18.368Z,100027.86
2019-03-21T01:02:49.818Z,100030.13
2019-03-21T01:05:20.807Z,100028.49
2019-03-21T01:07:51.667Z,100021.97
2019-03-21T01:10:23.155Z,100019.87
2019-03-21T01:12:53.928Z,100024.80
2019-03-21T01:15:25.024Z,100018.28
2019-03-21T01:17:55.801Z,100017.50
2019-03-21T01:20:27.069Z,100012.28
2019-03-21T01:22:57.820Z,100012.13
2019-03-21T01:25:33.278Z,100012.52
2019-03-21T01:28:04.174Z,100010.92
2019-03-21T01:30:35.172Z,100009.84
2019-03-21T01:33:06.701Z,99999.54
2019-03-21T01:35:38.636Z,100000.06
2019-03-21T01:38:09.723Z,99999.15
2019-03-21T01:40:41.793Z,99993.61
2019-03-21T01:43:12.571Z,99991.91
2019-03-21T01:45:43.930Z,99989.27
2019-03-21T01:48:14.958Z,99984.10
2019-03-21T01:50:46.131Z,99988.57
2019-03-21T01:53:16.939Z,99977.72
2019-03-21T01:55:47.746Z,99983.92
2019-03-21T01:58:18.615Z,99976.16
2019-03-21T02:00:50.118Z,99970.98
2019-03-21T02:03:20.935Z,99979.48
2019-03-21T02:05:51.998Z,99981.20
2019-03-21T02:08:22.879Z,99974.02
2019-03-21T02:10:53.942Z,99964.02
2019-03-21T02:13:24.764Z,99972.77
2019-03-21T02:15:55.543Z,99957.50
2019-03-21T02:18:26.800Z,99958.77
2019-03-21T02:20:57.947Z,99961.00
2019-03-21T02:23:28.791Z,99954.91
2019-03-21T02:25:59.579Z,99953.56
2019-03-21T02:28:30.357Z,99957.50
2019-03-21T02:31:01.492Z,99950.88
2019-03-21T02:33:33.315Z,99948.78
2019-03-21T02:36:04.384Z,99953.17
2019-03-21T02:38:35.816Z,99946.62
2019-03-21T02:41:07.690Z,99947.98
2019-03-21T02:43:38.882Z,99941.67
2019-03-21T02:46:10.681Z,99945.08
2019-03-21T02:48:41.451Z,99945.48
2019-03-21T02:51:12.156Z,99946.08
2019-03-21T02:53:42.930Z,99942.78
2019-03-21T02:56:15.481Z,99947.25
2019-03-21T02:58:46.231Z,99946.41
2019-03-21T03:01:17.679Z,99941.02
2019-03-21T03:03:48.902Z,99942.64
2019-03-21T03:06:20.220Z,99942.81
2019-03-21T03:08:51.013Z,99941.14
2019-03-21T03:11:22.818Z,99941.98
2019-03-21T03:13:53.816Z,99939.89
2019-03-21T03:19:37.319Z,99941.26
2019-03-21T03:22:08.719Z,99944.41
2019-03-21T03:24:40.228Z,99947.45
2019-03-21T03:27:11.005Z,99944.02
2019-03-21T03:29:41.792Z,99953.41
2019-03-21T03:32:12.576Z,99954.05
2019-03-21T03:34:43.346Z,99953.25
2019-03-21T03:37:14.156Z,99957.27
2019-03-21T03:39:45.515Z,99960.40
2019-03-21T03:42:17.046Z,99959.48
2019-03-21T03:44:47.855Z,99956.11
2019-03-21T03:47:20.161Z,99956.87
2019-03-21T03:49:50.950Z,99956.11
2019-03-21T03:52:21.731Z,99956.11
2019-03-21T03:54:52.506Z,99957.02
2019-03-21T03:57:23.299Z,99965.38
2019-03-21T03:59:54.184Z,99968.95
2019-03-21T04:02:25.688Z,99968.52
2019-03-21T04:04:56.746Z,99968.95
2019-03-21T04:07:27.680Z,99973.35
2019-03-21T04:09:58.828Z,99975.07
2019-03-21T04:12:30.049Z,99972.94
2019-03-21T04:15:00.881Z,99978.16
2019-03-21T04:17:32.136Z,99982.55
2019-03-21T04:20:03.325Z,99987.90
2019-03-21T04:22:35.481Z,99989.23
2019-03-21T04:25:07.609Z,99991.48
2019-03-21T04:27:38.410Z,99993.57
2019-03-21T04:30:10.916Z,99995.84
2019-03-21T04:32:41.689Z,99993.72
2019-03-21T04:35:13.299Z,99994.21
2019-03-21T04:37:45.116Z,99992.90
2019-03-21T04:40:16.431Z,99988.97
2019-03-21T04:42:47.189Z,99989.55
2019-03-21T04:45:19.784Z,99998.34
2019-03-21T04:47:50.585Z,99998.34
2019-03-21T04:50:24.119Z,99996.22
2019-03-21T04:52:55.748Z,99996.72
2019-03-21T04:55:26.532Z,99997.61
2019-03-21T04:57:57.617Z,99997.66
2019-03-21T05:00:30.549Z,100001.56
2019-03-21T05:03:02.268Z,99997.25
2019-03-21T05:05:33.358Z,100003.36
2019-03-21T05:08:04.574Z,100004.23
2019-03-21T05:10:36.004Z,100000.78
2019-03-21T05:13:07.300Z,100004.71
2019-03-21T05:15:39.499Z,100006.03
2019-03-21T05:18:13.713Z,100004.27
2019-03-21T05:20:44.776Z,100003.41
2019-03-21T05:23:16.731Z,100006.93
2019-03-21T05:25:47.564Z,100003.36
2019-03-21T05:28:18.608Z,100001.14
2019-03-21T05:31:13.244Z,100003.36
2019-03-21T05:33:44.658Z,100004.23
2019-03-21T05:36:15.922Z,100002.37
2019-03-21T05:38:47.044Z,100002.28
2019-03-21T05:41:18.245Z,100004.05
2019-03-21T05:43:55.571Z,100005.67
2019-03-21T05:46:27.254Z,100009.52
2019-03-21T05:48:58.085Z,100009.02
2019-03-21T05:51:28.969Z,100015.89
2019-03-21T05:53:59.752Z,100015.44
2019-03-21T05:56:31.625Z,100017.75
2019-03-21T05:59:03.421Z,100019.53
2019-03-21T06:01:35.127Z,100023.01
2019-03-21T06:04:07.009Z,100029.98
2019-03-21T06:06:44.589Z,100022.06
2019-03-21T06:09:17.672Z,100021.14
2019-03-21T06:11:52.194Z,100019.38
2019-03-21T06:14:23.035Z,100018.52
2019-03-21T06:16:53.816Z,100026.30
2019-03-21T06:20:04.070Z,100023.98
2019-03-21T06:23:15.500Z,100016.00
2019-03-21T06:26:37.677Z,100019.38
2019-03-21T06:29:08.447Z,100022.28
2019-03-21T06:31:39.677Z,100018.17
2019-03-21T06:34:10.435Z,100021.94
2019-03-21T06:36:41.196Z,100015.00
2019-03-21T06:39:13.699Z,100020.55
2019-03-21T06:41:44.589Z,100020.86
2019-03-21T06:44:16.446Z,100019.75
2019-03-21T06:46:49.597Z,100021.83
2019-03-21T06:49:20.042Z,100027.30
2019-03-21T06:51:50.845Z,100014.39
2019-03-21T06:54:21.624Z,100024.67
2019-03-21T06:56:52.433Z,100020.53
2019-03-21T06:59:24.470Z,100019.87
2019-03-21T07:01:55.278Z,100022.30
2019-03-21T07:04:25.937Z,100022.92
2019-03-21T07:07:07.248Z,100023.45
2019-03-21T07:09:29.445Z,100026.69
2019-03-21T07:12:00.170Z,100026.12
2019-03-21T07:14:31.012Z,100025.47
2019-03-21T07:17:02.175Z,100027.03
2019-03-21T07:19:33.316Z,100028.17
2019-03-21T07:22:04.059Z,100021.08
2019-03-21T07:24:34.976Z,100023.91
2019-03-21T07:27:06.448Z,100021.11
2019-03-21T07:29:37.240Z,100019.12
2019-03-21T07:32:08.027Z,100018.93
2019-03-21T07:34:38.899Z,100024.39
2019-03-21T07:37:10.143Z,100024.22
2019-03-21T07:39:40.889Z,100019.29
2019-03-21T07:42:12.223Z,100023.83
2019-03-21T07:44:42.967Z,100029.28
2019-03-21T07:47:13.816Z,100026.13
2019-03-21T07:49:44.720Z,100019.22
2019-03-21T07:52:15.961Z,100025.41
2019-03-21T07:54:46.721Z,100021.50
2019-03-21T07:57:17.593Z,100021.74
2019-03-21T07:59:49.126Z,100024.09
2019-03-21T08:02:22.149Z,100029.86
2019-03-21T08:04:53.338Z,100022.46
2019-03-21T08:07:24.847Z,100020.55
2019-03-21T08:09:56.170Z,100021.20
2019-03-21T08:12:26.942Z,100012.06
2019-03-21T08:14:57.765Z,100020.06
2019-03-21T08:17:28.794Z,100013.09
2019-03-21T08:19:59.960Z,100009.73
2019-03-21T08:22:30.953Z,100016.46
2019-03-21T08:25:01.667Z,100016.99
2019-03-21T08:27:32.877Z,100018.53
2019-03-21T08:30:03.950Z,100019.52
2019-03-21T08:32:34.689Z,100020.66
2019-03-21T08:35:06.621Z,100020.63
2019-03-21T08:37:37.711Z,100016.52
2019-03-21T08:40:09.115Z,100014.56
2019-03-21T08:42:40.567Z,100013.20
2019-03-21T08:45:11.498Z,100018.42
2019-03-21T08:47:42.645Z,100012.25
2019-03-21T08:50:13.840Z,100012.50
2019-03-21T08:52:44.920Z,100015.64
2019-03-21T08:55:15.673Z,100018.98
2019-03-21T08:57:46.878Z,100018.56
2019-03-21T09:00:17.748Z,100019.89
2019-03-21T09:02:50.249Z,100024.22
2019-03-21T09:05:21.375Z,100025.02
2019-03-21T09:07:52.204Z,100018.17
2019-03-21T09:10:23.035Z,100017.27
2019-03-21T09:12:53.896Z,100015.75
2019-03-21T09:15:24.825Z,100015.81
2019-03-21T09:17:56.136Z,100018.21
2019-03-21T09:20:27.680Z,100015.31
2019-03-21T09:22:58.487Z,100013.45
2019-03-21T09:25:29.567Z,100017.44
2019-03-21T09:28:02.755Z,100016.77
2019-03-21T09:30:33.423Z,100010.12
2019-03-21T09:33:04.668Z,100015.45
2019-03-21T09:35:35.844Z,100014.28
2019-03-21T09:38:07.808Z,100014.22
2019-03-21T09:40:39.035Z,100009.72
2019-03-21T09:43:10.271Z,100013.50
2019-03-21T09:45:41.893Z,100006.25
2019-03-21T09:48:13.271Z,100002.84
2019-03-21T09:50:44.099Z,100003.45
2019-03-21T09:53:15.954Z,99999.07
2019-03-21T09:55:47.071Z,100000.42
2019-03-21T09:58:18.781Z,99993.93
2019-03-21T10:00:50.315Z,99998.20
2019-03-21T10:03:21.220Z,99997.04
2019-03-21T10:05:51.975Z,99994.23
2019-03-21T10:08:22.838Z,99996.05
2019-03-21T10:10:53.640Z,99993.45
2019-03-21T10:13:25.224Z,99996.60
2019-03-21T10:15:56.050Z,99994.02
2019-03-21T10:18:27.274Z,99991.45
2019-03-21T10:20:58.007Z,99997.34
2019-03-21T10:23:28.844Z,99998.69
2019-03-21T10:26:00.323Z,99996.16
2019-03-21T10:28:31.367Z,99997.88
2019-03-21T10:31:02.509Z,99991.02
2019-03-21T10:33:33.342Z,99981.14
2019-03-21T10:36:04.616Z,99980.56
2019-03-21T10:38:35.775Z,99976.92
2019-03-21T10:41:06.522Z,99981.48
2019-03-21T10:43:38.196Z,99978.59
2019-03-21T10:46:09.741Z,99976.25
2019-03-21T10:48:40.527Z,99975.52
2019-03-21T10:51:11.306Z,99969.84
2019-03-21T10:53:42.088Z,99969.02
2019-03-21T10:56:13.387Z,99966.91
2019-03-21T10:58:44.737Z,99962.59
2019-03-21T11:01:15.476Z,99960.28
2019-03-21T11:03:46.918Z,99967.88
2019-03-21T11:06:17.670Z,99965.17
2019-03-21T11:08:48.836Z,99960.91
2019-03-21T11:11:20.174Z,99961.83
2019-03-21T11:13:50.936Z,99957.70
2019-03-21T11:16:22.036Z,99956.06
2019-03-21T11:18:53.204Z,99961.44
2019-03-21T11:21:25.203Z,99958.55
2019-03-21T11:23:56.751Z,99953.80
2019-03-21T11:26:27.879Z,99949.21
2019-03-21T11:28:58.616Z,99952.39
2019-03-21T11:31:29.722Z,99946.63
2019-03-21T11:34:00.491Z,99945.44
2019-03-21T11:36:38.311Z,99940.46
2019-03-21T11:39:05.047Z,99939.59
2019-03-21T11:41:36.568Z,99934.63
2019-03-21T11:44:08.421Z,99931.72
2019-03-21T11:46:39.503Z,99925.08
2019-03-21T11:49:10.333Z,99927.09
2019-03-21T11:51:41.220Z,99927.47
2019-03-21T11:54:12.401Z,99916.16
2019-03-21T11:56:43.286Z,99916.72
2019-03-21T11:59:14.646Z,99914.02
2019-03-21T12:01:46.281Z,99914.44
2019-03-21T12:04:17.109Z,99908.22
2019-03-21T12:06:47.902Z,99913.47
2019-03-21T12:09:18.768Z,99904.23
2019-03-21T12:11:49.710Z,99904.59
2019-03-21T12:14:20.947Z,99902.86
2019-03-21T12:16:53.012Z,99897.12
2019-03-21T12:19:24.102Z,99898.74
2019-03-21T12:21:55.515Z,99895.63
2019-03-21T12:24:26.356Z,99884.88
2019-03-21T12:26:57.125Z,99882.89
2019-03-21T12:29:28.039Z,99867.94
2019-03-21T12:31:59.230Z,99867.94
2019-03-21T12:34:30.168Z,99872.93
2019-03-21T12:37:01.244Z,99868.80
2019-03-21T12:39:32.586Z,99870.56
2019-03-21T12:42:03.690Z,99865.47
2019-03-21T12:44:34.493Z,99868.33
2019-03-21T12:47:05.513Z,99857.23
2019-03-21T12:49:36.312Z,99857.23
2019-03-21T12:52:07.491Z,99852.69
2019-03-21T12:54:38.232Z,99851.54
2019-03-21T12:57:09.013Z,99851.41
2019-03-21T12:59:40.680Z,99839.56
2019-03-21T13:02:12.040Z,99845.67
2019-03-21T13:04:42.867Z,99835.81
2019-03-21T13:07:14.187Z,99835.99
2019-03-21T13:09:45.646Z,99836.42
2019-03-21T13:12:16.488Z,99834.77
2019-03-21T13:14:47.680Z,99833.05
2019-03-21T13:17:18.791Z,99821.69
2019-03-21T13:19:50.815Z,99825.83
2019-03-21T13:22:22.077Z,99824.58
2019-03-21T13:24:52.819Z,99817.64
2019-03-21T13:27:23.695Z,99821.09
2019-03-21T13:29:54.690Z,99817.41
2019-03-21T13:32:25.511Z,99817.64
2019-03-21T13:34:56.284Z,99817.03
2019-03-21T13:37:27.438Z,99809.38
2019-03-21T13:39:58.560Z,99809.78
2019-03-21T13:42:29.626Z,99804.72
2019-03-21T13:45:00.383Z,99796.66
2019-03-21T13:47:31.939Z,99801.38
2019-03-21T13:50:03.383Z,99798.83
2019-03-21T13:52:34.281Z,99786.90
2019-03-21T13:55:05.180Z,99788.17
2019-03-21T13:57:36.285Z,99783.66
2019-03-21T14:00:08.616Z,99774.11
2019-03-21T14:02:40.250Z,99776.98
2019-03-21T14:05:11.249Z,99776.47
2019-03-21T14:07:42.590Z,99774.30
2019-03-21T14:10:13.886Z,99775.53
2019-03-21T14:12:44.816Z,99770.14
2019-03-21T14:15:16.512Z,99769.70
2019-03-21T14:17:47.487Z,99772.56
2019-03-21T14:20:18.766Z,99774.36
2019-03-21T14:22:49.982Z,99768.23
2019-03-21T14:25:21.071Z,99764.13
2019-03-21T14:27:51.864Z,99761.80
2019-03-21T14:30:22.656Z,99761.13
2019-03-21T14:32:53.390Z,99760.16
2019-03-21T14:35:25.211Z,99759.42
2019-03-21T14:37:56.334Z,99759.28
2019-03-21T14:40:27.713Z,99755.70
2019-03-21T14:42:58.966Z,99752.39
2019-03-21T14:45:30.056Z,99746.22
2019-03-21T14:48:01.227Z,99742.11
2019-03-21T14:50:32.336Z,99751.27
2019-03-21T14:53:04.141Z,99757.70
2019-03-21T14:55:46.818Z,99743.13
2019-03-21T14:58:08.375Z,99742.79
2019-03-21T15:00:39.910Z,99742.91
2019-03-21T15:03:12.622Z,99736.69
2019-03-21T15:05:43.457Z,99741.81
2019-03-21T15:08:14.337Z,99746.84
2019-03-21T15:10:45.103Z,99735.72
2019-03-21T15:13:16.073Z,99735.72
2019-03-21T15:15:47.224Z,99737.95
2019-03-21T15:18:18.999Z,99734.98
2019-03-21T15:20:50.209Z,99735.11
2019-03-21T15:23:21.154Z,99735.34
2019-03-21T15:25:52.428Z,99731.58
2019-03-21T15:28:23.310Z,99729.41
2019-03-21T15:30:54.023Z,99737.22
2019-03-21T15:33:25.237Z,99730.44
2019-03-21T15:35:56.054Z,99727.55
2019-03-21T15:38:27.969Z,99728.48
2019-03-21T15:40:59.562Z,99731.33
2019-03-21T15:43:30.322Z,99733.81
2019-03-21T15:46:01.106Z,99733.68
2019-03-21T15:48:31.880Z,99745.75
2019-03-21T15:51:04.834Z,99737.82
2019-03-21T15:53:35.560Z,99739.02
2019-03-21T15:56:06.551Z,99738.86
2019-03-21T15:58:37.677Z,99735.88
2019-03-21T16:01:08.472Z,99735.09
2019-03-21T16:03:39.220Z,99735.94
2019-03-21T16:06:10.419Z,99734.98
2019-03-21T16:08:41.371Z,99735.30
2019-03-21T16:11:12.331Z,99727.36
2019-03-21T16:13:43.414Z,99734.92
2019-03-21T16:16:14.297Z,99738.84
2019-03-21T16:18:45.128Z,99732.42
2019-03-21T16:21:16.238Z,99728.08
2019-03-21T16:23:47.971Z,99734.60
2019-03-21T16:26:19.031Z,99731.38
2019-03-21T16:28:49.975Z,99732.86
2019-03-21T16:31:21.907Z,99725.75
2019-03-21T16:33:53.577Z,99739.63
2019-03-21T16:36:24.408Z,99735.31
2019-03-21T16:38:55.230Z,99729.52
2019-03-21T16:41:26.774Z,99731.72
2019-03-21T16:43:57.858Z,99736.41
2019-03-21T16:46:29.142Z,99732.45
2019-03-21T16:48:59.920Z,99739.77
2019-03-21T16:51:31.805Z,99735.94
2019-03-21T16:54:03.096Z,99735.92
2019-03-21T16:56:33.923Z,99745.67
2019-03-21T16:59:04.997Z,99740.34
2019-03-21T17:01:35.750Z,99738.97
2019-03-21T17:04:06.764Z,99736.63
2019-03-21T17:06:37.819Z,99744.15
2019-03-21T17:09:10.052Z,99748.47
2019-03-21T17:11:40.845Z,99754.55
2019-03-21T17:14:13.177Z,99745.39
2019-03-21T17:16:44.325Z,99757.50
2019-03-21T17:19:15.941Z,99744.54
2019-03-21T17:21:47.475Z,99757.66
2019-03-21T17:24:28.682Z,99744.97
2019-03-21T17:26:51.783Z,99747.91
2019-03-21T17:29:23.568Z,99752.41
2019-03-21T17:31:54.288Z,99747.60
2019-03-21T17:34:25.034Z,99743.30
2019-03-21T17:36:55.855Z,99758.56
2019-03-21T17:39:27.114Z,99755.23
2019-03-21T17:41:57.908Z,99757.71
2019-03-21T17:44:29.530Z,99757.58
2019-03-21T17:47:00.354Z,99759.47
2019-03-21T17:49:31.203Z,99758.44
2019-03-21T17:52:01.965Z,99760.19
2019-03-21T17:54:41.564Z,99763.82
2019-03-21T17:57:05.767Z,99764.50
2019-03-21T17:59:36.987Z,99770.66
2019-03-21T18:02:08.879Z,99763.40
2019-03-21T18:04:40.961Z,99767.00
2019-03-21T18:07:11.717Z,99763.31
2019-03-21T18:09:44.554Z,99769.67
2019-03-21T18:12:15.416Z,99763.23
2019-03-21T18:14:46.617Z,99769.15
2019-03-21T18:17:17.405Z,99765.64
2019-03-21T18:19:48.491Z,99765.58
2019-03-21T18:22:20.170Z,99768.47
2019-03-21T18:24:54.137Z,99774.67
2019-03-21T18:27:25.072Z,99770.30
2019-03-21T18:29:56.134Z,99776.23
2019-03-21T18:32:28.512Z,99784.06
2019-03-21T18:35:00.382Z,99779.99
2019-03-21T18:37:31.213Z,99785.14
2019-03-21T18:40:02.025Z,99789.40
2019-03-21T18:42:33.194Z,99789.52
2019-03-21T18:45:04.338Z,99784.62
2019-03-21T18:47:35.613Z,99792.50
2019-03-21T18:50:09.158Z,99792.66
2019-03-21T18:52:40.220Z,99791.09
2019-03-21T18:55:11.792Z,99789.36
2019-03-21T18:57:42.750Z,99798.66
2019-03-21T19:00:18.581Z,99795.17
2019-03-21T19:02:49.861Z,99795.31
2019-03-21T19:05:21.182Z,99795.06
2019-03-21T19:07:52.059Z,99794.47
2019-03-21T19:10:22.852Z,99797.73
2019-03-21T19:12:53.737Z,99799.50
2019-03-21T19:15:26.156Z,99802.21
2019-03-21T19:17:57.209Z,99801.30
2019-03-21T19:20:28.036Z,99799.35
2019-03-21T19:22:59.224Z,99803.84
2019-03-21T19:25:30.017Z,99798.61
2019-03-21T19:28:01.301Z,99802.67
2019-03-21T19:30:32.488Z,99802.23
2019-03-21T19:33:04.577Z,99805.68
2019-03-21T19:35:36.072Z,99814.59
2019-03-21T19:38:07.331Z,99809.50
2019-03-21T19:40:38.449Z,99814.92
2019-03-21T19:43:09.219Z,99811.42
2019-03-21T19:45:40.295Z,99812.03
2019-03-21T19:48:11.772Z,99808.36
2019-03-21T19:50:43.283Z,99807.27
2019-03-21T19:53:14.100Z,99805.56
2019-03-21T19:55:46.409Z,99810.26
2019-03-21T19:58:17.955Z,99814.80
2019-03-21T20:00:49.105Z,99809.53
2019-03-21T20:03:20.249Z,99814.70
2019-03-21T20:05:59.948Z,99811.81
2019-03-21T20:08:24.205Z,99810.80
2019-03-21T20:10:55.313Z,99816.03
2019-03-21T20:13:26.612Z,99813.20
2019-03-21T20:15:58.137Z,99813.06
2019-03-21T20:18:29.476Z,99811.73
2019-03-21T20:21:01.793Z,99815.89
2019-03-21T20:23:32.727Z,99818.94
2019-03-21T20:26:03.640Z,99818.01
2019-03-21T20:28:34.535Z,99818.55
2019-03-21T20:31:05.981Z,99825.53
2019-03-21T20:33:37.046Z,99821.91
2019-03-21T20:36:08.706Z,99827.41
2019-03-21T20:38:39.949Z,99827.30
2019-03-21T20:41:11.096Z,99824.74
2019-03-21T20:43:42.859Z,99827.17
2019-03-21T20:46:13.890Z,99821.52
2019-03-21T20:48:42.415Z,99822.31
2019-03-21T20:51:13.346Z,99820.73
2019-03-21T20:53:44.694Z,99814.48
2019-03-21T20:56:15.634Z,99813.15
2019-03-21T20:58:47.399Z,99819.24
2019-03-21T21:01:19.175Z,99818.53
2019-03-21T21:03:50.010Z,99816.89
2019-03-21T21:06:21.507Z,99819.98
2019-03-21T21:08:52.417Z,99820.20
2019-03-21T21:11:23.683Z,99820.31
2019-03-21T21:13:55.352Z,99814.77
2019-03-21T21:16:26.716Z,99823.43
2019-03-21T21:18:57.524Z,99819.42
2019-03-21T21:21:29.538Z,99818.06
2019-03-21T21:24:00.642Z,99816.20
2019-03-21T21:26:31.502Z,99813.69
2019-03-21T21:29:02.733Z,99814.13
2019-03-21T21:31:34.057Z,99814.48
2019-03-21T21:34:04.917Z,99817.34
2019-03-21T21:36:35.812Z,99819.05
2019-03-21T21:39:08.529Z,99819.39
2019-03-21T21:41:39.479Z,99818.17
2019-03-21T21:44:10.302Z,99819.22
2019-03-21T21:46:41.256Z,99819.23
2019-03-21T21:49:13.186Z,99816.95
2019-03-21T21:51:44.084Z,99813.07
2019-03-21T21:54:14.862Z,99814.39
2019-03-21T21:56:45.918Z,99809.48
2019-03-21T21:59:16.992Z,99811.63
2019-03-21T22:01:48.215Z,99812.14
2019-03-21T22:04:19.128Z,99821.56
2019-03-21T22:06:50.851Z,99815.47
2019-03-21T22:09:22.011Z,99817.63
2019-03-21T22:11:53.144Z,99811.91
2019-03-21T22:14:24.339Z,99808.11
2019-03-21T22:16:56.356Z,99810.89
2019-03-21T22:19:27.554Z,99814.95
2019-03-21T22:21:59.207Z,99809.48
2019-03-21T22:24:30.288Z,99823.03
2019-03-21T22:27:01.399Z,99820.38
2019-03-21T22:29:32.783Z,99820.98
2019-03-21T22:32:04.047Z,99821.53
2019-03-21T22:34:35.355Z,99824.83
2019-03-21T22:37:06.243Z,99819.08
2019-03-21T22:39:37.831Z,99816.20
2019-03-21T22:42:09.721Z,99814.41
2019-03-21T22:44:40.838Z,99810.77
2019-03-21T22:47:12.237Z,99814.39
2019-03-21T22:49:44.098Z,99809.56
2019-03-21T22:52:14.947Z,99804.20
2019-03-21T22:54:45.803Z,99805.77
2019-03-21T22:57:17.037Z,99805.88
2019-03-21T22:59:48.538Z,99806.92
2019-03-21T23:02:19.875Z,99799.14
2019-03-21T23:04:50.711Z,99800.28
2019-03-21T23:07:21.571Z,99801.84
2019-03-21T23:09:52.382Z,99798.38
2019-03-21T23:12:23.772Z,99796.63
2019-03-21T23:14:54.883Z,99791.88
2019-03-21T23:17:26.016Z,99792.27
2019-03-21T23:19:59.018Z,99788.48
2019-03-21T23:22:30.871Z,99790.08
2019-03-21T23:25:01.663Z,99789.18
2019-03-21T23:27:33.627Z,99780.02
2019-03-21T23:30:06.447Z,99788.16
2019-03-21T23:32:39.666Z,99789.00
2019-03-21T23:35:12.598Z,99791.66
2019-03-21T23:37:43.373Z,99788.06
2019-03-21T23:40:14.290Z,99790.41
2019-03-21T23:42:45.043Z,99790.56
2019-03-21T23:45:16.215Z,99790.98
2019-03-21T23:47:47.521Z,99783.34
2019-03-21T23:50:19.243Z,99784.74
2019-03-21T23:52:50.030Z,99781.22
2019-03-21T23:55:22.489Z,99788.23
2019-03-21T23:57:53.636Z,99788.31
